Time;durP1;ratioP1;P1;durP2;ratioP2;P2;SDS_P1;SDS_P2;PMS_P1;PMS_P2;Temp;Humidity;BMP_temperature;BMP_pressure;BME280_temperature;BME280_humidity;BME280_pressure;Samples;Min_cycle;Max_cycle;Signal;HPM_P1;HPM_P2
2022/01/24 00:00:50;;;;;;;9.68;7.43;;;;;;;3.76;100.00;103399.97;4914041;29;20507;-74
2022/01/24 00:03:16;;;;;;;11.38;7.43;;;;;;;3.81;100.00;103405.94;4931573;29;20101;-74
2022/01/24 00:05:41;;;;;;;10.45;6.78;;;;;;;3.97;100.00;103401.19;4944582;28;20051;-74
2022/01/24 00:08:07;;;;;;;8.95;7.07;;;;;;;4.06;100.00;103398.38;4940971;28;20062;-74
2022/01/24 00:10:35;;;;;;;12.25;6.80;;;;;;;4.03;100.00;103393.25;4922026;29;20734;-73
2022/01/24 00:18:31;;;;;;;17.98;7.45;;;;;;;3.99;100.00;103399.41;4917065;29;20043;-74
2022/01/24 00:29:09;;;;;;;11.43;7.40;;;;;;;4.06;100.00;103391.41;4939228;29;20027;-74
2022/01/24 00:31:34;;;;;;;11.13;7.13;;;;;;;4.09;100.00;103393.09;4908830;29;20050;-74
2022/01/24 00:34:00;;;;;;;13.88;7.45;;;;;;;4.04;100.00;103393.22;4913946;29;20067;-74
2022/01/24 00:36:26;;;;;;;12.57;7.05;;;;;;;3.97;100.00;103383.88;4932409;29;20062;-74
2022/01/24 00:38:51;;;;;;;13.32;7.55;;;;;;;4.05;100.00;103381.06;4908657;29;20114;-74
2022/01/24 00:41:18;;;;;;;10.38;7.78;;;;;;;3.99;100.00;103383.81;4902051;29;20044;-74
2022/01/24 00:46:34;;;;;;;12.52;8.68;;;;;;;4.13;100.00;103375.69;4943345;28;20067;-74
2022/01/24 00:57:00;;;;;;;13.35;8.93;;;;;;;4.12;100.00;103387.81;4933369;28;20058;-73
2022/01/24 00:59:26;;;;;;;13.30;9.30;;;;;;;4.04;100.00;103389.78;4908536;29;20050;-74
2022/01/24 01:01:52;;;;;;;13.95;9.23;;;;;;;4.08;100.00;103378.41;4908107;29;20119;-76
2022/01/24 01:04:23;;;;;;;13.40;8.90;;;;;;;4.06;100.00;103383.63;4931605;29;20039;-74
2022/01/24 01:06:49;;;;;;;11.25;8.40;;;;;;;3.99;100.00;103384.66;4909419;28;20613;-76
2022/01/24 01:20:21;;;;;;;15.98;9.88;;;;;;;3.85;100.00;103379.84;4929574;29;20110;-77
2022/01/24 01:22:47;;;;;;;12.98;9.15;;;;;;;3.85;100.00;103373.81;4909120;29;20039;-74
2022/01/24 01:25:13;;;;;;;15.43;9.55;;;;;;;3.85;100.00;103382.44;4950587;29;20042;-74
2022/01/24 01:27:43;;;;;;;12.73;9.13;;;;;;;4.03;100.00;103383.72;4920389;29;20390;-74
2022/01/24 01:30:22;;;;;;;24.50;10.18;;;;;;;4.07;100.00;103379.31;4899755;29;20078;-75
2022/01/24 01:33:10;;;;;;;16.55;9.80;;;;;;;4.01;100.00;103377.72;4915123;29;20042;-71
2022/01/24 01:36:00;;;;;;;14.88;9.38;;;;;;;3.97;100.00;103380.41;4904546;29;20039;-74
2022/01/24 01:38:41;;;;;;;13.02;9.00;;;;;;;3.89;100.00;103378.88;4906399;29;20501;-74
2022/01/24 01:55:13;;;;;;;14.55;9.95;;;;;;;4.12;100.00;103377.44;4882217;28;20039;-73
2022/01/24 01:57:41;;;;;;;16.08;9.90;;;;;;;4.05;100.00;103381.94;4913315;29;20032;-74
2022/01/24 02:00:09;;;;;;;13.27;9.45;;;;;;;3.99;100.00;103376.88;4914818;28;20099;-74
2022/01/24 02:02:34;;;;;;;17.15;10.13;;;;;;;3.93;100.00;103391.78;4940503;29;20090;-74
2022/01/24 02:05:00;;;;;;;17.25;10.60;;;;;;;3.82;100.00;103387.69;4917324;29;20816;-74
2022/01/24 02:07:26;;;;;;;16.58;9.18;;;;;;;3.80;100.00;103386.88;4918114;29;20059;-75
2022/01/24 02:09:51;;;;;;;14.43;10.38;;;;;;;3.90;100.00;103377.13;4914368;29;20031;-72
2022/01/24 02:12:19;;;;;;;16.60;10.32;;;;;;;3.89;100.00;103376.25;4915369;29;20051;-75
2022/01/24 02:14:51;;;;;;;17.50;11.10;;;;;;;3.82;100.00;103374.72;4916282;29;20560;-75
2022/01/24 02:17:25;;;;;;;19.48;10.93;;;;;;;3.81;100.00;103374.78;4920220;29;20035;-73
2022/01/24 02:22:42;;;;;;;18.73;11.93;;;;;;;3.98;100.00;103384.75;4927499;29;20031;-73
2022/01/24 02:25:22;;;;;;;17.38;11.02;;;;;;;4.02;100.00;103386.34;4923450;29;20039;-72
2022/01/24 02:27:54;;;;;;;19.42;10.75;;;;;;;3.89;100.00;103381.47;4917658;29;20487;-71
2022/01/24 02:32:51;;;;;;;17.85;10.70;;;;;;;3.98;100.00;103380.38;4918964;29;20101;-73
2022/01/24 02:35:17;;;;;;;16.02;11.40;;;;;;;3.96;100.00;103389.13;4923459;29;20466;-74
2022/01/24 02:37:43;;;;;;;16.58;11.27;;;;;;;3.95;100.00;103387.41;4923552;29;20039;-74
2022/01/24 02:40:15;;;;;;;18.00;10.65;;;;;;;3.95;100.00;103390.84;4933821;29;20031;-76
2022/01/24 02:48:24;;;;;;;20.17;11.88;;;;;;;3.93;100.00;103387.44;4929376;29;20028;-75
2022/01/24 02:53:35;;;;;;;21.67;13.27;;;;;;;3.90;100.00;103382.34;4929362;29;20511;-74
2022/01/24 02:56:02;;;;;;;19.55;12.55;;;;;;;3.95;100.00;103370.06;4914126;28;20044;-74
2022/01/24 02:58:28;;;;;;;17.20;11.77;;;;;;;4.04;100.00;103372.44;4915003;29;20046;-74
2022/01/24 03:00:55;;;;;;;20.67;13.18;;;;;;;3.93;100.00;103369.25;4914760;29;20039;-74
2022/01/24 03:03:22;;;;;;;18.23;12.68;;;;;;;3.86;100.00;103381.56;4916433;29;20050;-76
2022/01/24 03:05:48;;;;;;;19.58;13.07;;;;;;;3.88;100.00;103387.56;4932829;29;20415;-74
2022/01/24 03:08:14;;;;;;;20.42;13.85;;;;;;;3.85;100.00;103384.19;4915083;29;20032;-74
2022/01/24 03:10:45;;;;;;;20.70;13.07;;;;;;;3.77;100.00;103374.00;4930342;29;20384;-74
2022/01/24 03:15:50;;;;;;;19.65;13.45;;;;;;;3.84;100.00;103366.88;4927775;29;20047;-74
2022/01/24 03:18:17;;;;;;;16.90;12.90;;;;;;;3.98;100.00;103358.75;4940441;29;20042;-74
2022/01/24 03:20:46;;;;;;;18.08;12.50;;;;;;;3.89;100.00;103360.69;4902547;29;20039;-75
2022/01/24 03:23:14;;;;;;;20.67;12.35;;;;;;;3.82;100.00;103355.69;4914266;29;20030;-75
2022/01/24 03:25:40;;;;;;;16.13;12.25;;;;;;;3.72;100.00;103355.06;4922330;29;20043;-76
2022/01/24 03:28:06;;;;;;;15.45;10.68;;;;;;;3.74;100.00;103361.06;4917324;29;20054;-74
2022/01/24 03:30:33;;;;;;;14.30;10.48;;;;;;;3.74;100.00;103360.22;4906344;29;20643;-74
2022/01/24 03:32:59;;;;;;;14.73;10.05;;;;;;;3.75;100.00;103355.00;4943802;28;20039;-73
2022/01/24 03:35:25;;;;;;;13.25;9.98;;;;;;;3.81;100.00;103356.59;4932392;29;20454;-75
2022/01/24 03:37:51;;;;;;;13.15;9.38;;;;;;;3.83;100.00;103353.06;4901278;28;20032;-75
2022/01/24 03:40:17;;;;;;;13.43;9.02;;;;;;;3.75;100.00;103356.72;4933666;29;20121;-75
2022/01/24 03:42:43;;;;;;;12.02;8.93;;;;;;;3.92;100.00;103364.09;4930383;29;20378;-73
2022/01/24 03:45:10;;;;;;;12.00;8.43;;;;;;;3.90;100.00;103359.81;4920286;28;20044;-75
2022/01/24 03:50:08;;;;;;;12.20;7.68;;;;;;;3.86;100.00;103381.56;4903552;29;20126;-71
2022/01/24 03:52:34;;;;;;;12.05;7.20;;;;;;;3.85;100.00;103379.84;4893954;29;20493;-72
2022/01/24 03:55:03;;;;;;;9.02;6.90;;;;;;;3.74;100.00;103371.47;4910055;29;20048;-74
2022/01/24 03:57:29;;;;;;;9.05;7.22;;;;;;;3.77;100.00;103366.19;4899347;29;20031;-74
2022/01/24 03:59:55;;;;;;;9.30;6.90;;;;;;;3.82;100.00;103376.47;4917702;29;20058;-75
2022/01/24 04:02:24;;;;;;;9.02;6.78;;;;;;;3.68;100.00;103369.88;4921960;29;20039;-73
2022/01/24 04:04:50;;;;;;;10.40;6.97;;;;;;;3.67;100.00;103364.69;4927133;29;20068;-74
2022/01/24 04:07:16;;;;;;;9.68;7.30;;;;;;;3.69;100.00;103369.00;4914164;29;20635;-76
2022/01/24 04:09:43;;;;;;;9.52;7.35;;;;;;;3.73;100.00;103364.56;4895334;29;20035;-75
2022/01/24 04:12:11;;;;;;;16.02;8.25;;;;;;;3.70;100.00;103367.25;4906879;29;20058;-75
2022/01/24 04:22:14;;;;;;;15.27;9.70;;;;;;;3.73;100.00;103374.97;4926671;29;20038;-72
2022/01/24 04:24:40;;;;;;;15.43;9.73;;;;;;;3.73;100.00;103372.38;4909775;29;20043;-75
2022/01/24 04:27:07;;;;;;;14.38;9.68;;;;;;;3.77;100.00;103370.53;4912970;29;20027;-75
2022/01/24 04:29:33;;;;;;;18.45;10.95;;;;;;;3.74;100.00;103368.03;4912700;29;20035;-75
2022/01/24 04:31:59;;;;;;;16.65;10.43;;;;;;;3.64;100.00;103367.41;4915890;29;20035;-74
2022/01/24 04:34:25;;;;;;;18.67;11.18;;;;;;;3.60;100.00;103370.94;4914718;29;20043;-75
2022/01/24 04:36:51;;;;;;;16.35;11.10;;;;;;;3.62;100.00;103367.44;4921050;29;20038;-74
2022/01/24 04:39:17;;;;;;;17.25;11.30;;;;;;;3.66;100.00;103366.47;4918200;29;20120;-74
2022/01/24 04:41:47;;;;;;;15.15;10.98;;;;;;;3.66;100.00;103357.81;4924526;29;20036;-74
2022/01/24 04:54:46;;;;;;;19.50;12.85;;;;;;;3.68;100.00;103358.63;4912902;29;20392;-74
2022/01/24 04:57:14;;;;;;;18.95;12.20;;;;;;;3.62;100.00;103357.03;4916625;28;20066;-74
2022/01/24 04:59:41;;;;;;;19.50;12.80;;;;;;;3.70;100.00;103357.69;4917478;29;20449;-74
2022/01/24 05:02:08;;;;;;;19.70;13.40;;;;;;;3.68;100.00;103356.88;4902969;29;20110;-74
2022/01/24 05:04:35;;;;;;;22.90;14.82;;;;;;;3.70;100.00;103368.09;4908913;29;20098;-74
2022/01/24 05:07:01;;;;;;;21.13;14.02;;;;;;;3.62;100.00;103356.19;4923394;28;20488;-75
2022/01/24 05:09:31;;;;;;;22.75;14.68;;;;;;;3.50;100.00;103367.69;4926297;29;20038;-74
2022/01/24 05:12:25;;;;;;;22.85;15.13;;;;;;;3.41;100.00;103371.38;4928792;29;20027;-74
2022/01/24 05:25:43;;;;;;;24.15;15.13;;;;;;;3.29;100.00;103375.09;4923617;29;20036;-75
2022/01/24 05:28:09;;;;;;;27.33;15.35;;;;;;;3.27;100.00;103370.84;4914112;28;20031;-74
2022/01/24 05:30:35;;;;;;;29.92;16.73;;;;;;;3.31;100.00;103367.28;4891316;29;20422;-73
2022/01/24 05:33:01;;;;;;;31.52;18.77;;;;;;;3.35;100.00;103374.09;4908610;29;20036;-74
2022/01/24 05:35:26;;;;;;;32.15;19.45;;;;;;;3.37;100.00;103367.16;4907649;29;20390;-75
2022/01/24 05:37:55;;;;;;;33.47;19.13;;;;;;;3.55;100.00;103367.63;4915210;29;20035;-73
2022/01/24 05:40:21;;;;;;;32.75;18.55;;;;;;;3.37;100.00;103368.88;4915651;29;20039;-74
2022/01/24 05:42:46;;;;;;;37.70;20.58;;;;;;;3.31;100.00;103368.16;4931361;29;20104;-75
2022/01/24 05:45:12;;;;;;;30.92;18.48;;;;;;;3.29;100.00;103371.66;4911126;29;20043;-74
2022/01/24 05:47:38;;;;;;;29.25;17.70;;;;;;;3.28;100.00;103375.16;4918418;29;20043;-75
2022/01/24 05:50:05;;;;;;;28.73;17.83;;;;;;;3.27;100.00;103376.88;4924644;29;20053;-75
2022/01/24 05:52:31;;;;;;;32.53;18.70;;;;;;;3.31;100.00;103375.06;4929033;29;20441;-75
2022/01/24 05:54:57;;;;;;;30.38;18.08;;;;;;;3.35;100.00;103374.09;4908523;29;20043;-75
2022/01/24 05:57:22;;;;;;;37.05;22.27;;;;;;;3.41;100.00;103371.38;4919726;29;20981;-75
2022/01/24 05:59:48;;;;;;;41.05;23.75;;;;;;;3.46;100.00;103379.91;4923132;29;20035;-75
2022/01/24 06:02:14;;;;;;;38.35;22.23;;;;;;;3.50;100.00;103381.56;4925299;29;20490;-74
2022/01/24 06:04:39;;;;;;;39.05;22.13;;;;;;;3.53;100.00;103384.97;4912616;29;20035;-74
2022/01/24 06:07:06;;;;;;;37.10;21.75;;;;;;;3.57;100.00;103384.84;4931940;29;20398;-75
2022/01/24 06:09:31;;;;;;;34.03;20.92;;;;;;;3.54;100.00;103384.06;4937862;28;20043;-75
2022/01/24 06:11:57;;;;;;;37.15;20.90;;;;;;;3.52;100.00;103386.69;4930761;29;20151;-74
2022/01/24 06:14:23;;;;;;;39.80;21.92;;;;;;;3.71;100.00;103389.69;4916308;29;20040;-75
2022/01/24 06:16:49;;;;;;;40.28;22.83;;;;;;;3.52;100.00;103391.88;4924845;29;20075;-74
2022/01/24 06:19:15;;;;;;;39.47;22.35;;;;;;;3.61;100.00;103389.06;4939957;29;20106;-74
2022/01/24 06:21:41;;;;;;;38.80;22.50;;;;;;;3.57;100.00;103389.19;4916271;29;20039;-75
2022/01/24 06:24:06;;;;;;;40.28;21.98;;;;;;;3.63;100.00;103379.50;4900895;29;20043;-74
2022/01/24 06:26:32;;;;;;;36.15;21.23;;;;;;;3.65;100.00;103387.25;4941784;29;20036;-75
2022/01/24 06:28:58;;;;;;;39.78;20.92;;;;;;;3.65;100.00;103400.22;4914415;29;20053;-75
2022/01/24 06:31:23;;;;;;;37.03;21.50;;;;;;;3.52;100.00;103397.06;4917080;29;20036;-74
2022/01/24 06:33:49;;;;;;;38.40;21.80;;;;;;;3.39;100.00;103393.94;4932750;28;20077;-75
2022/01/24 06:36:15;;;;;;;41.15;22.00;;;;;;;3.27;100.00;103389.00;4922347;29;20276;-75
2022/01/24 06:38:41;;;;;;;40.35;21.77;;;;;;;3.27;100.00;103389.00;4914614;29;20047;-74
2022/01/24 06:41:07;;;;;;;37.58;21.85;;;;;;;3.27;100.00;103395.03;4923375;28;20043;-75
2022/01/24 06:43:32;;;;;;;39.22;22.40;;;;;;;3.27;100.00;103401.97;4898893;29;20039;-75
2022/01/24 06:45:58;;;;;;;42.78;23.52;;;;;;;3.27;100.00;103389.00;4916915;28;20046;-76
2022/01/24 06:48:24;;;;;;;35.53;20.67;;;;;;;3.28;100.00;103394.16;4902485;29;20044;-75
2022/01/24 06:50:50;;;;;;;36.65;20.63;;;;;;;3.26;100.00;103390.75;4905558;28;20043;-76
2022/01/24 06:53:16;;;;;;;36.88;21.48;;;;;;;3.28;100.00;103390.72;4931390;28;20031;-75
2022/01/24 06:55:42;;;;;;;42.20;23.92;;;;;;;3.29;100.00;103387.22;4927721;29;20031;-75
2022/01/24 06:58:07;;;;;;;37.13;21.75;;;;;;;3.28;100.00;103388.97;4904999;29;20040;-75
2022/01/24 07:00:34;;;;;;;40.78;22.02;;;;;;;3.29;100.00;103395.00;4909265;29;20142;-75
2022/01/24 07:03:00;;;;;;;36.10;21.25;;;;;;;3.30;100.00;103394.97;4903488;29;20384;-75
2022/01/24 07:05:28;;;;;;;37.38;21.63;;;;;;;3.30;100.00;103394.97;4912887;29;20039;-75
2022/01/24 07:07:56;;;;;;;39.58;22.23;;;;;;;3.27;100.00;103389.84;4908528;28;20751;-75
2022/01/24 07:10:24;;;;;;;40.63;22.70;;;;;;;3.33;100.00;103391.44;4919310;29;20134;-75
2022/01/24 07:12:51;;;;;;;37.75;22.08;;;;;;;3.30;100.00;103392.38;4914125;29;20071;-75
2022/01/24 07:15:19;;;;;;;38.95;22.15;;;;;;;3.35;100.00;103381.03;4915954;29;20055;-74
2022/01/24 07:20:16;;;;;;;38.30;22.00;;;;;;;3.43;100.00;103386.94;4929001;29;20063;-75
2022/01/24 07:22:42;;;;;;;38.13;21.85;;;;;;;3.53;100.00;103383.22;4910675;29;20031;-75
2022/01/24 07:25:08;;;;;;;39.92;22.35;;;;;;;3.60;100.00;103383.91;4904143;28;20068;-75
2022/01/24 07:27:34;;;;;;;43.35;24.00;;;;;;;3.40;100.00;103390.41;4946144;29;20506;-75
2022/01/24 07:30:01;;;;;;;41.67;23.23;;;;;;;3.34;100.00;103390.56;4911363;29;20111;-75
2022/01/24 07:32:28;;;;;;;40.63;22.35;;;;;;;3.38;100.00;103388.75;4916983;29;20051;-75
2022/01/24 07:34:54;;;;;;;43.25;24.38;;;;;;;3.35;100.00;103396.59;4913218;28;20090;-74
2022/01/24 07:37:22;;;;;;;46.20;25.15;;;;;;;3.56;100.00;103403.91;4919440;28;20035;-75
2022/01/24 07:39:48;;;;;;;43.80;24.90;;;;;;;3.61;100.00;103393.41;4916507;29;20091;-75
2022/01/24 07:42:27;;;;;;;48.55;24.85;;;;;;;3.46;100.00;103390.28;4914905;29;20038;-75
2022/01/24 07:44:52;;;;;;;48.70;25.30;;;;;;;3.34;100.00;103398.34;4923518;28;20415;-75
2022/01/24 07:47:18;;;;;;;46.13;24.13;;;;;;;3.50;100.00;103398.84;4915003;29;20027;-75
2022/01/24 07:49:44;;;;;;;43.13;23.23;;;;;;;3.61;100.00;103396.00;4929267;29;20043;-76
2022/01/24 07:52:11;;;;;;;48.15;24.55;;;;;;;3.62;100.00;103401.16;4916664;29;20854;-75
2022/01/24 07:54:37;;;;;;;45.53;23.67;;;;;;;3.53;100.00;103390.16;4914439;29;20042;-75
2022/01/24 07:57:03;;;;;;;47.38;25.20;;;;;;;3.40;100.00;103393.03;4931946;29;20510;-75
2022/01/24 07:59:28;;;;;;;46.08;24.70;;;;;;;3.53;100.00;103391.00;4908470;29;20040;-75
2022/01/24 08:01:54;;;;;;;51.22;25.92;;;;;;;3.43;100.00;103390.38;4916821;29;20066;-75
2022/01/24 08:04:20;;;;;;;49.72;25.85;;;;;;;3.38;100.00;103386.16;4937912;29;20039;-74
2022/01/24 08:06:47;;;;;;;49.17;25.60;;;;;;;3.35;100.00;103389.66;4912241;29;20578;-75
2022/01/24 08:09:14;;;;;;;49.63;25.40;;;;;;;3.44;100.00;103391.22;4932817;29;20192;-77
2022/01/24 08:11:39;;;;;;;44.15;24.38;;;;;;;3.35;100.00;103394.00;4917494;29;20514;-75
2022/01/24 08:14:07;;;;;;;47.25;24.75;;;;;;;3.34;100.00;103389.72;4912714;29;20111;-75
2022/01/24 08:16:34;;;;;;;50.78;26.02;;;;;;;3.42;100.00;103386.03;4917342;29;20086;-74
2022/01/24 08:19:00;;;;;;;46.15;24.40;;;;;;;3.35;100.00;103391.41;4909440;29;20046;-74
2022/01/24 08:21:25;;;;;;;44.35;23.35;;;;;;;3.31;100.00;103390.63;4932881;29;20028;-74
2022/01/24 08:23:51;;;;;;;45.38;25.58;;;;;;;3.33;100.00;103390.59;4921606;28;20131;-75
2022/01/24 08:26:18;;;;;;;54.83;27.25;;;;;;;3.31;100.00;103386.31;4920717;29;20031;-75
2022/01/24 08:28:44;;;;;;;49.35;25.00;;;;;;;3.47;100.00;103386.81;4915310;29;20090;-74
2022/01/24 08:31:10;;;;;;;49.03;26.23;;;;;;;3.42;100.00;103383.47;4920302;28;20077;-75
2022/01/24 08:33:35;;;;;;;47.80;26.65;;;;;;;3.35;100.00;103371.50;4936157;29;20038;-75
2022/01/24 08:36:02;;;;;;;51.17;26.90;;;;;;;3.37;100.00;103384.44;4909574;29;20047;-75
2022/01/24 08:38:29;;;;;;;53.00;27.38;;;;;;;3.36;100.00;103380.16;4897286;29;20039;-75
2022/01/24 08:40:59;;;;;;;54.65;27.30;;;;;;;3.44;100.00;103386.03;4919567;29;20040;-75
2022/01/24 08:43:57;;;;;;;52.42;27.35;;;;;;;3.40;100.00;103387.81;4901698;29;20578;-74
2022/01/24 08:46:22;;;;;;;57.35;28.70;;;;;;;3.47;100.00;103392.00;4919751;29;20040;-74
2022/01/24 08:48:49;;;;;;;57.65;27.70;;;;;;;3.46;100.00;103395.47;4914798;29;20039;-75
2022/01/24 08:51:15;;;;;;;59.30;28.85;;;;;;;3.46;100.00;103392.03;4916039;29;20036;-75
2022/01/24 08:53:41;;;;;;;61.53;29.17;;;;;;;3.62;100.00;103395.13;4935502;29;20043;-74
2022/01/24 08:56:11;;;;;;;54.28;28.75;;;;;;;3.58;100.00;103389.16;4919201;28;20113;-74
2022/01/24 08:58:38;;;;;;;55.72;28.23;;;;;;;3.64;100.00;103399.38;4917362;29;20135;-75
2022/01/24 09:01:05;;;;;;;49.35;26.85;;;;;;;3.55;100.00;103391.81;4919298;29;20031;-75
2022/01/24 09:03:36;;;;;;;52.13;27.80;;;;;;;3.58;100.00;103401.25;4909226;29;20048;-75
2022/01/24 09:06:02;;;;;;;58.97;30.45;;;;;;;3.54;100.00;103390.09;4943127;28;20126;-75
2022/01/24 09:08:28;;;;;;;58.15;29.88;;;;;;;3.64;100.00;103382.97;4915781;29;20502;-73
2022/01/24 09:10:54;;;;;;;60.90;29.30;;;;;;;3.78;100.00;103377.44;4927305;29;20039;-75
2022/01/24 09:13:23;;;;;;;51.38;28.00;;;;;;;3.75;100.00;103362.78;4918611;29;20076;-74
2022/01/24 09:15:49;;;;;;;55.13;27.77;;;;;;;3.90;100.00;103374.53;4933705;29;20043;-75
2022/01/24 09:18:16;;;;;;;55.22;28.63;;;;;;;3.69;100.00;103376.78;4902245;29;20036;-74
2022/01/24 09:20:41;;;;;;;59.58;29.42;;;;;;;3.70;100.00;103373.28;4947065;29;20509;-74
2022/01/24 09:23:09;;;;;;;56.78;28.50;;;;;;;3.67;100.00;103375.09;4915276;29;20043;-75
2022/01/24 09:25:36;;;;;;;57.28;28.40;;;;;;;3.60;100.00;103382.19;4919114;29;20499;-76
2022/01/24 09:28:03;;;;;;;59.15;28.13;;;;;;;3.62;100.00;103384.75;4929421;28;20087;-75
2022/01/24 09:30:30;;;;;;;54.60;28.27;;;;;;;3.69;100.00;103387.16;4903333;29;20086;-75
2022/01/24 09:32:58;;;;;;;54.72;27.95;;;;;;;3.75;100.00;103387.88;4913273;29;20035;-75
2022/01/24 09:35:27;;;;;;;60.58;28.83;;;;;;;3.65;100.00;103389.84;4931701;29;20042;-75
2022/01/24 09:37:53;;;;;;;58.28;28.88;;;;;;;3.70;100.00;103383.66;4932192;29;20071;-75
2022/01/24 09:40:19;;;;;;;52.78;26.48;;;;;;;3.70;100.00;103388.00;4914576;29;20121;-74
2022/01/24 09:42:46;;;;;;;53.97;27.10;;;;;;;3.68;100.00;103387.19;4925561;29;20487;-73
2022/01/24 09:45:14;;;;;;;57.20;27.15;;;;;;;3.72;100.00;103383.63;4932079;29;20501;-75
2022/01/24 09:47:40;;;;;;;49.20;24.88;;;;;;;3.79;100.00;103377.41;4900098;29;20149;-75
2022/01/24 09:50:12;;;;;;;53.85;27.25;;;;;;;3.76;100.00;103377.47;4915265;29;20468;-74
2022/01/24 09:52:44;;;;;;;48.90;25.20;;;;;;;3.82;100.00;103374.72;4922967;29;20094;-75
2022/01/24 09:55:11;;;;;;;55.38;26.50;;;;;;;3.86;100.00;103371.16;4911948;29;20098;-76
2022/01/24 09:57:37;;;;;;;48.22;24.10;;;;;;;3.84;100.00;103374.69;4919715;29;20040;-74
2022/01/24 10:00:09;;;;;;;53.58;25.35;;;;;;;3.85;100.00;103379.84;4901855;29;20137;-73
2022/01/24 10:02:38;;;;;;;47.38;25.00;;;;;;;3.75;100.00;103373.19;4910167;29;20463;-75
2022/01/24 10:05:16;;;;;;;43.90;23.33;;;;;;;3.83;100.00;103375.59;4917512;29;20059;-74
2022/01/24 10:07:49;;;;;;;44.08;23.08;;;;;;;3.88;100.00;103382.38;4920407;29;20035;-74
2022/01/24 10:10:21;;;;;;;47.95;24.95;;;;;;;3.93;100.00;103378.81;4915806;29;20372;-75
2022/01/24 10:18:01;;;;;;;49.28;24.17;;;;;;;3.93;100.00;103381.41;4919767;29;20058;-75
2022/01/24 10:20:37;;;;;;;47.92;24.45;;;;;;;3.89;100.00;103372.81;4916808;29;20035;-76
2022/01/24 10:23:26;;;;;;;42.88;22.92;;;;;;;3.93;100.00;103381.41;4902832;29;20047;-75
2022/01/24 10:26:02;;;;;;;42.00;22.15;;;;;;;3.99;100.00;103384.66;4919959;29;20410;-73
2022/01/24 10:28:30;;;;;;;43.50;22.30;;;;;;;4.04;100.00;103377.63;4919162;29;20031;-75
2022/01/24 10:31:06;;;;;;;39.80;22.17;;;;;;;4.07;100.00;103381.91;4920612;29;20082;-75
2022/01/24 10:33:50;;;;;;;46.00;22.50;;;;;;;4.05;100.00;103384.53;4929766;29;20446;-75
2022/01/24 10:36:51;;;;;;;43.83;22.67;;;;;;;4.06;100.00;103383.63;4917405;29;20039;-74
2022/01/24 10:39:28;;;;;;;41.05;22.63;;;;;;;4.07;100.00;103384.50;4914563;29;20056;-74
2022/01/24 10:45:00;;;;;;;40.45;22.75;;;;;;;4.22;100.00;103365.91;4905487;28;20579;-75
2022/01/24 10:47:32;;;;;;;41.35;23.25;;;;;;;4.22;100.00;103365.91;4916385;29;20044;-73
2022/01/24 10:50:00;;;;;;;42.78;22.55;;;;;;;4.22;100.00;103362.44;4911761;29;20047;-73
2022/01/24 10:52:29;;;;;;;43.65;22.65;;;;;;;4.22;100.00;103362.44;4906963;29;20035;-73
2022/01/24 10:55:12;;;;;;;38.97;21.55;;;;;;;4.24;100.00;103358.94;4912165;29;20501;-74
2022/01/24 10:57:40;;;;;;;44.25;22.63;;;;;;;4.28;100.00;103362.31;4929573;29;20066;-75
2022/01/24 11:00:13;;;;;;;42.05;21.80;;;;;;;4.27;100.00;103370.97;4904188;29;20039;-75
2022/01/24 11:02:42;;;;;;;41.83;22.00;;;;;;;4.09;100.00;103360.19;4899457;29;20443;-75
2022/01/24 11:05:19;;;;;;;40.60;21.83;;;;;;;4.02;100.00;103360.38;4934580;28;20038;-75
2022/01/24 11:07:55;;;;;;;40.55;22.63;;;;;;;3.94;100.00;103351.91;4914779;29;20071;-75
2022/01/24 11:10:22;;;;;;;39.70;22.73;;;;;;;4.00;100.00;103355.22;4901510;29;20061;-75
2022/01/24 11:12:47;;;;;;;43.28;22.35;;;;;;;4.10;100.00;103348.88;4903595;29;20051;-74
2022/01/24 11:15:13;;;;;;;40.00;22.40;;;;;;;4.16;100.00;103350.47;4903635;29;20047;-74
2022/01/24 11:17:40;;;;;;;37.40;22.42;;;;;;;4.23;100.00;103344.22;4915281;29;20046;-75
2022/01/24 11:20:09;;;;;;;37.53;21.75;;;;;;;4.25;100.00;103351.97;4924063;29;20039;-75
2022/01/24 11:22:40;;;;;;;39.90;21.52;;;;;;;4.28;100.00;103344.94;4902037;29;20034;-76
2022/01/24 11:25:07;;;;;;;37.58;21.83;;;;;;;4.15;100.00;103342.75;4910034;29;20035;-75
2022/01/24 11:27:34;;;;;;;39.17;20.88;;;;;;;4.18;100.00;103348.72;4920110;29;20043;-75
2022/01/24 11:30:13;;;;;;;40.35;21.42;;;;;;;4.21;100.00;103343.41;4906733;28;20039;-76
2022/01/24 11:32:48;;;;;;;38.80;22.02;;;;;;;4.22;100.00;103342.53;4898759;29;20081;-76
2022/01/24 11:35:29;;;;;;;40.47;22.67;;;;;;;4.08;100.00;103332.50;4917801;29;20031;-75
2022/01/24 11:37:56;;;;;;;42.58;22.25;;;;;;;4.14;100.00;103335.81;4924064;29;20042;-75
2022/01/24 11:40:25;;;;;;;41.30;22.60;;;;;;;4.09;100.00;103343.75;4909841;29;20130;-75
2022/01/24 11:42:52;;;;;;;46.70;23.23;;;;;;;3.99;100.00;103337.94;4917121;29;20038;-75
2022/01/24 11:45:43;;;;;;;43.22;21.75;;;;;;;3.96;100.00;103330.22;4911235;28;20041;-75
2022/01/24 11:48:19;;;;;;;41.35;21.25;;;;;;;4.16;100.00;103327.09;4917490;29;20558;-75
2022/01/24 11:51:07;;;;;;;39.17;20.77;;;;;;;4.14;100.00;103333.22;4894005;29;20046;-75
2022/01/24 11:53:38;;;;;;;45.95;21.67;;;;;;;4.09;100.00;103336.81;4929873;29;20411;-76
2022/01/24 11:56:22;;;;;;;46.70;22.38;;;;;;;4.09;100.00;103338.56;4895558;29;20408;-75
2022/01/24 11:58:49;;;;;;;37.35;20.13;;;;;;;4.02;100.00;103335.25;4924084;29;20043;-75
2022/01/24 12:01:37;;;;;;;40.80;20.60;;;;;;;4.08;100.00;103335.09;4895785;28;20038;-76
2022/01/24 12:04:03;;;;;;;41.30;21.23;;;;;;;4.11;100.00;103344.56;4914959;28;20038;-75
2022/01/24 12:06:29;;;;;;;47.50;22.25;;;;;;;4.09;100.00;103334.22;4915152;29;20131;-75
2022/01/24 12:09:05;;;;;;;41.17;21.27;;;;;;;4.08;100.00;103332.50;4920977;29;20067;-75
2022/01/24 12:11:35;;;;;;;45.42;22.73;;;;;;;3.98;100.00;103332.78;4913414;29;20713;-75
2022/01/24 12:14:23;;;;;;;47.65;24.60;;;;;;;3.99;100.00;103326.69;4917367;29;20132;-75
2022/01/24 12:16:49;;;;;;;49.88;23.45;;;;;;;3.94;100.00;103329.41;4930271;29;20052;-75
2022/01/24 12:19:28;;;;;;;45.90;24.23;;;;;;;4.07;100.00;103329.97;4920704;29;20036;-75
2022/01/24 12:21:54;;;;;;;52.65;25.33;;;;;;;4.10;100.00;103324.66;4899127;29;20042;-75
2022/01/24 12:24:21;;;;;;;53.13;24.77;;;;;;;4.04;100.00;103317.88;4897746;29;20086;-75
2022/01/24 12:26:49;;;;;;;54.25;25.23;;;;;;;3.95;100.00;103307.75;4923954;29;20184;-75
2022/01/24 12:29:18;;;;;;;57.63;27.27;;;;;;;4.01;100.00;103301.53;4908016;29;20508;-75
2022/01/24 12:31:48;;;;;;;56.65;26.63;;;;;;;4.13;100.00;103311.59;4913392;29;20077;-75
2022/01/24 12:34:16;;;;;;;60.38;28.92;;;;;;;4.07;100.00;103309.19;4907691;29;20495;-75
2022/01/24 12:36:51;;;;;;;59.90;28.73;;;;;;;4.28;100.00;103307.75;4917981;29;20082;-75
2022/01/24 12:39:19;;;;;;;65.05;31.42;;;;;;;4.23;100.00;103294.00;4890147;29;20041;-76
2022/01/24 12:41:51;;;;;;;63.33;32.00;;;;;;;4.21;100.00;103288.00;4938049;29;20047;-75
2022/01/24 12:47:06;;;;;;;68.72;31.60;;;;;;;4.14;100.00;103295.09;4937661;29;20043;-75
2022/01/24 12:49:33;;;;;;;68.35;32.60;;;;;;;4.08;100.00;103298.72;4900646;29;20058;-74
2022/01/24 12:52:02;;;;;;;71.30;34.30;;;;;;;3.99;100.00;103301.56;4911969;29;20495;-75
2022/01/24 12:54:34;;;;;;;66.78;33.35;;;;;;;3.93;100.00;103300.88;4928614;29;20043;-75
2022/01/24 12:57:05;;;;;;;68.13;32.38;;;;;;;3.90;100.00;103300.09;4923865;29;20058;-75
2022/01/24 12:59:32;;;;;;;74.05;35.05;;;;;;;3.90;100.00;103299.25;4912739;29;20071;-75
2022/01/24 13:02:01;;;;;;;73.88;36.00;;;;;;;4.06;100.00;103295.31;4942095;28;20080;-75
2022/01/24 13:04:32;;;;;;;73.03;35.38;;;;;;;4.10;100.00;103298.69;4924076;29;20043;-75
2022/01/24 13:06:59;;;;;;;81.85;37.53;;;;;;;4.14;100.00;103300.31;4900413;28;20049;-75
2022/01/24 13:09:25;;;;;;;76.03;37.30;;;;;;;4.14;100.00;103296.84;4911015;29;20039;-75